createdAt,value
2023-02-23T00:00:27.755Z,9.50
2023-02-23T00:04:30.989Z,9.56
2023-02-23T00:08:36.107Z,9.53
2023-02-23T00:12:39.745Z,9.49
2023-02-23T00:16:45.407Z,9.50
2023-02-23T00:20:57.640Z,9.52
2023-02-23T00:25:03.231Z,9.53
2023-02-23T00:29:10.521Z,9.51
2023-02-23T00:33:14.027Z,9.52
2023-02-23T00:37:17.596Z,9.50
2023-02-23T00:41:24.111Z,9.48
2023-02-23T00:45:27.140Z,9.49
2023-02-23T00:49:30.101Z,9.49
2023-02-23T00:53:33.938Z,9.50
2023-02-23T00:57:38.519Z,9.49
2023-02-23T01:01:42.777Z,9.48
2023-02-23T01:05:49.815Z,9.47
2023-02-23T01:09:52.998Z,9.47
2023-02-23T01:13:59.201Z,9.49
2023-02-23T01:18:02.472Z,9.52
2023-02-23T01:22:05.695Z,9.48
2023-02-23T01:26:16.320Z,9.44
2023-02-23T01:30:20.767Z,9.41
2023-02-23T01:34:23.879Z,9.42
2023-02-23T01:38:26.850Z,9.43
2023-02-23T01:42:29.898Z,9.40
2023-02-23T01:46:36.417Z,9.38
2023-02-23T01:50:49.388Z,9.38
2023-02-23T01:54:56.726Z,9.37
2023-02-23T01:59:04.089Z,9.35
2023-02-23T02:03:15.718Z,9.35
2023-02-23T02:07:23.581Z,9.34
2023-02-23T02:11:30.805Z,9.34
2023-02-23T02:15:38.788Z,9.34
2023-02-23T02:20:14.855Z,9.33
2023-02-23T02:24:38.606Z,9.33
2023-02-23T02:29:10.041Z,9.30
2023-02-23T02:33:58.564Z,9.28
2023-02-23T02:38:17.380Z,9.16
2023-02-23T02:42:29.616Z,9.11
2023-02-23T02:46:38.581Z,9.11
2023-02-23T02:50:47.843Z,9.10
2023-02-23T02:54:54.662Z,9.09
2023-02-23T02:58:59.813Z,9.05
2023-02-23T03:03:20.575Z,9.06
2023-02-23T03:07:47.901Z,9.07
2023-02-23T03:12:20.481Z,9.12
2023-02-23T03:16:46.395Z,9.13
2023-02-23T03:21:12.577Z,9.14
2023-02-23T03:25:41.387Z,9.15
2023-02-23T03:30:11.762Z,9.14
2023-02-23T03:34:36.053Z,9.15
2023-02-23T03:39:04.696Z,9.15
2023-02-23T03:43:30.040Z,9.17
2023-02-23T03:47:56.553Z,9.18
2023-02-23T03:52:24.147Z,9.17
2023-02-23T03:56:46.402Z,9.13
2023-02-23T04:01:09.102Z,9.13
2023-02-23T04:05:36.272Z,9.16
2023-02-23T04:09:57.348Z,9.13
2023-02-23T04:14:04.570Z,9.11
2023-02-23T04:18:13.391Z,9.13
2023-02-23T04:22:17.746Z,9.10
2023-02-23T04:26:20.676Z,9.07
2023-02-23T04:30:25.717Z,9.06
2023-02-23T04:34:29.045Z,9.05
2023-02-23T04:38:33.465Z,9.05
2023-02-23T04:42:36.779Z,9.06
2023-02-23T04:46:39.907Z,9.03
2023-02-23T04:50:42.903Z,9.03
2023-02-23T04:54:48.162Z,9.03
2023-02-23T04:58:51.319Z,9.01
2023-02-23T05:02:54.508Z,9.03
2023-02-23T05:06:57.395Z,9.02
2023-02-23T05:11:01.710Z,8.96
2023-02-23T05:15:05.783Z,8.99
2023-02-23T05:19:09.451Z,8.98
2023-02-23T05:23:13.130Z,8.96
2023-02-23T05:27:17.792Z,8.99
2023-02-23T05:31:21.588Z,9.02
2023-02-23T05:35:24.775Z,8.99
2023-02-23T05:39:27.778Z,8.97
2023-02-23T05:43:32.115Z,8.98
2023-02-23T05:47:38.573Z,8.93
2023-02-23T05:51:43.078Z,8.91
2023-02-23T05:55:46.163Z,8.90
2023-02-23T06:00:06.097Z,8.89
2023-02-23T06:04:08.968Z,8.91
2023-02-23T06:08:12.790Z,8.90
2023-02-23T06:12:17.031Z,8.88
2023-02-23T06:16:21.809Z,8.90
2023-02-23T06:20:24.739Z,8.94
2023-02-23T06:24:27.896Z,8.95
2023-02-23T06:28:31.303Z,8.94
2023-02-23T06:32:35.780Z,8.95
2023-02-23T06:36:41.071Z,8.92
2023-02-23T06:40:44.232Z,8.84
2023-02-23T06:44:47.318Z,8.82
2023-02-23T06:48:55.867Z,8.78
2023-02-23T06:52:58.921Z,8.75
2023-02-23T06:57:02.305Z,8.80
2023-02-23T07:01:06.434Z,8.79
2023-02-23T07:05:11.395Z,8.77
2023-02-23T07:09:15.498Z,8.75
2023-02-23T07:13:20.439Z,8.72
2023-02-23T07:17:23.971Z,8.68
2023-02-23T07:21:28.303Z,8.62
2023-02-23T07:25:32.140Z,8.45
2023-02-23T07:29:35.057Z,8.42
2023-02-23T07:33:38.357Z,8.37
2023-02-23T07:37:43.171Z,8.29
2023-02-23T07:41:46.780Z,8.19
2023-02-23T07:45:55.094Z,8.23
2023-02-23T07:49:59.774Z,8.23
2023-02-23T07:54:05.838Z,8.22
2023-02-23T07:58:09.726Z,8.24
2023-02-23T08:02:16.435Z,8.29
2023-02-23T08:06:20.703Z,8.34
2023-02-23T08:10:25.162Z,8.38
2023-02-23T08:14:28.347Z,8.38
2023-02-23T08:18:31.350Z,8.37
2023-02-23T08:22:48.407Z,8.33
2023-02-23T08:26:54.626Z,8.30
2023-02-23T08:30:59.274Z,8.30
2023-02-23T08:35:03.198Z,8.26
2023-02-23T08:39:07.379Z,8.24
2023-02-23T08:43:11.797Z,8.26
2023-02-23T08:47:16.665Z,8.24
2023-02-23T08:51:20.330Z,8.23
2023-02-23T08:55:23.956Z,8.23
2023-02-23T08:59:28.414Z,8.28
2023-02-23T09:03:31.585Z,8.33
2023-02-23T09:07:34.608Z,8.35
2023-02-23T09:11:37.570Z,8.31
2023-02-23T09:15:42.760Z,8.32
2023-02-23T09:19:45.688Z,8.29
2023-02-23T09:23:51.213Z,8.31
2023-02-23T09:27:57.004Z,8.31
2023-02-23T09:32:01.443Z,8.35
2023-02-23T09:36:09.467Z,8.37
2023-02-23T09:40:16.263Z,8.42
2023-02-23T09:44:27.509Z,8.47
2023-02-23T09:48:35.779Z,8.44
2023-02-23T09:52:42.741Z,8.34
2023-02-23T09:56:48.706Z,8.34
2023-02-23T10:01:00.348Z,8.38
2023-02-23T10:05:09.590Z,8.44
2023-02-23T10:09:23.310Z,8.43
2023-02-23T10:13:38.384Z,8.36
2023-02-23T10:17:50.105Z,8.33
2023-02-23T10:21:58.212Z,8.44
2023-02-23T10:26:03.266Z,8.51
2023-02-23T10:30:18.858Z,8.64
2023-02-23T10:34:23.692Z,8.66
2023-02-23T10:38:28.658Z,8.71
2023-02-23T10:42:32.094Z,8.75
2023-02-23T10:46:39.346Z,8.80
2023-02-23T10:50:43.856Z,8.88
2023-02-23T10:54:50.037Z,8.88
2023-02-23T10:58:56.121Z,8.82
2023-02-23T11:03:00.020Z,8.88
2023-02-23T11:07:16.420Z,9.00
2023-02-23T11:11:27.473Z,9.05
2023-02-23T11:15:49.263Z,9.07
2023-02-23T11:20:01.758Z,9.00
2023-02-23T11:24:14.614Z,9.00
2023-02-23T11:28:22.246Z,9.01
2023-02-23T11:32:30.915Z,8.83
2023-02-23T11:36:36.380Z,8.74
2023-02-23T11:40:42.853Z,8.73
2023-02-23T11:44:53.222Z,8.79
2023-02-23T11:49:00.738Z,8.79
2023-02-23T11:53:06.832Z,8.82
2023-02-23T11:57:09.778Z,8.88
2023-02-23T12:01:18.713Z,8.89
2023-02-23T12:05:27.304Z,8.97
2023-02-23T12:09:35.170Z,8.97
2023-02-23T12:13:43.251Z,8.88
2023-02-23T12:17:53.050Z,8.86
2023-02-23T12:22:03.579Z,8.78
2023-02-23T12:26:14.041Z,8.78
2023-02-23T12:30:21.061Z,8.84
2023-02-23T12:34:30.893Z,8.85
2023-02-23T12:38:45.282Z,8.86
2023-02-23T12:42:59.816Z,8.87
2023-02-23T12:47:09.077Z,8.88
2023-02-23T12:51:22.073Z,8.88
2023-02-23T12:55:38.332Z,8.94
2023-02-23T13:00:10.236Z,9.03
2023-02-23T13:04:36.911Z,9.10
2023-02-23T13:09:03.605Z,9.07
2023-02-23T13:13:21.661Z,9.12
2023-02-23T13:17:39.882Z,9.05
2023-02-23T13:21:50.331Z,9.09
2023-02-23T13:26:01.640Z,8.95
2023-02-23T13:30:10.385Z,8.91
2023-02-23T13:34:22.363Z,8.84
2023-02-23T13:38:33.679Z,8.85
2023-02-23T13:43:00.043Z,8.75
2023-02-23T13:47:12.816Z,8.75
2023-02-23T13:51:22.079Z,8.73
2023-02-23T13:55:50.369Z,8.75
2023-02-23T13:59:55.843Z,8.79
2023-02-23T14:04:00.818Z,8.73
2023-02-23T14:08:06.440Z,8.72
2023-02-23T14:12:19.379Z,8.77
2023-02-23T14:16:23.909Z,8.80
2023-02-23T14:20:53.441Z,8.77
2023-02-23T14:25:30.999Z,8.78
2023-02-23T14:29:40.952Z,8.75
2023-02-23T14:33:57.875Z,8.71
2023-02-23T14:38:02.799Z,8.64
2023-02-23T14:42:08.297Z,8.72
2023-02-23T14:46:20.634Z,8.69
2023-02-23T14:50:29.323Z,8.71
2023-02-23T14:54:34.416Z,8.72
2023-02-23T14:58:37.581Z,8.82
2023-02-23T15:02:53.660Z,8.79
2023-02-23T15:07:02.625Z,8.82
2023-02-23T15:11:12.066Z,8.92
2023-02-23T15:15:20.448Z,8.92
2023-02-23T15:19:34.430Z,8.91
2023-02-23T15:23:39.145Z,8.96
2023-02-23T15:27:45.294Z,9.07
2023-02-23T15:31:53.654Z,9.11
2023-02-23T15:36:05.892Z,9.09
2023-02-23T15:40:15.861Z,9.10
2023-02-23T15:44:24.272Z,9.12
2023-02-23T15:48:39.509Z,9.06
2023-02-23T15:52:48.304Z,9.00
2023-02-23T15:56:58.077Z,9.00
2023-02-23T16:01:05.938Z,9.03
2023-02-23T16:05:21.068Z,9.00
2023-02-23T16:09:29.879Z,8.96
2023-02-23T16:13:34.533Z,8.92
2023-02-23T16:17:44.645Z,8.95
2023-02-23T16:21:53.722Z,8.93
2023-02-23T16:26:01.360Z,8.85
2023-02-23T16:30:19.698Z,8.84
2023-02-23T16:34:27.196Z,8.77
2023-02-23T16:38:36.379Z,8.79
2023-02-23T16:42:40.435Z,8.78
2023-02-23T16:47:32.933Z,8.85
2023-02-23T16:51:37.511Z,8.91
2023-02-23T16:55:44.338Z,8.90
2023-02-23T16:59:50.566Z,8.87
2023-02-23T17:03:54.878Z,8.83
2023-02-23T17:07:59.298Z,8.80
2023-02-23T17:12:02.272Z,8.77
2023-02-23T17:16:09.055Z,8.80
2023-02-23T17:20:21.640Z,8.77
2023-02-23T17:24:26.180Z,8.71
2023-02-23T17:28:29.252Z,8.33
2023-02-23T17:32:33.020Z,8.10
2023-02-23T17:36:37.602Z,7.80
2023-02-23T17:40:40.729Z,7.56
2023-02-23T17:44:44.686Z,7.43
2023-02-23T17:48:47.791Z,7.32
2023-02-23T17:52:52.608Z,7.32
2023-02-23T17:56:55.496Z,7.32
2023-02-23T18:01:00.574Z,7.28
2023-02-23T18:05:04.305Z,7.18
2023-02-23T18:09:09.219Z,7.10
2023-02-23T18:13:12.980Z,7.12
2023-02-23T18:17:37.117Z,7.05
2023-02-23T18:21:41.575Z,6.96
2023-02-23T18:25:46.491Z,6.87
2023-02-23T18:29:49.531Z,6.91
2023-02-23T18:33:53.684Z,6.95
2023-02-23T18:37:56.919Z,6.99
2023-02-23T18:42:02.812Z,7.02
2023-02-23T18:46:06.830Z,6.84
2023-02-23T18:50:12.771Z,6.75
2023-02-23T18:54:18.542Z,6.74
2023-02-23T18:58:22.994Z,6.71
2023-02-23T19:02:30.100Z,6.68
2023-02-23T19:06:37.393Z,6.63
2023-02-23T19:10:41.530Z,6.55
2023-02-23T19:14:49.755Z,6.56
2023-02-23T19:19:00.427Z,6.51
2023-02-23T19:23:08.066Z,6.42
2023-02-23T19:27:22.501Z,6.51
2023-02-23T19:31:32.200Z,6.47
2023-02-23T19:35:36.193Z,6.52
2023-02-23T19:39:40.857Z,6.46
2023-02-23T19:43:44.444Z,6.53
2023-02-23T19:47:48.772Z,6.56
2023-02-23T19:51:54.078Z,6.59
2023-02-23T19:56:03.231Z,6.53
2023-02-23T20:00:12.058Z,6.52
2023-02-23T20:04:16.479Z,6.52
2023-02-23T20:08:19.798Z,6.51
2023-02-23T20:12:23.736Z,6.49
2023-02-23T20:16:29.556Z,6.47
2023-02-23T20:20:35.895Z,6.48
2023-02-23T20:24:40.104Z,6.42
2023-02-23T20:28:43.830Z,6.31
2023-02-23T20:32:47.236Z,6.31
2023-02-23T20:36:51.715Z,6.20
2023-02-23T20:40:54.884Z,6.17
2023-02-23T20:44:58.470Z,6.09
2023-02-23T20:49:18.652Z,5.99
2023-02-23T20:53:40.945Z,5.92
2023-02-23T20:57:56.375Z,5.90
2023-02-23T21:02:04.033Z,5.84
2023-02-23T21:06:08.157Z,5.82
2023-02-23T21:10:13.907Z,5.77
2023-02-23T21:14:18.009Z,5.77
2023-02-23T21:18:31.593Z,5.79
2023-02-23T21:22:40.985Z,5.84
2023-02-23T21:26:45.596Z,5.86
2023-02-23T21:30:49.185Z,5.83
2023-02-23T21:34:53.552Z,5.85
2023-02-23T21:38:57.331Z,5.83
2023-02-23T21:43:16.362Z,5.74
2023-02-23T21:47:36.340Z,5.68
2023-02-23T21:51:55.153Z,5.61
2023-02-23T21:55:59.815Z,5.52
2023-02-23T22:00:08.267Z,5.42
2023-02-23T22:04:16.240Z,5.31
2023-02-23T22:08:19.050Z,5.24
2023-02-23T22:12:22.352Z,5.17
2023-02-23T22:16:32.235Z,5.12
2023-02-23T22:20:35.153Z,5.10
2023-02-23T22:24:38.978Z,5.03
2023-02-23T22:28:42.678Z,4.99
2023-02-23T22:32:47.612Z,5.01
2023-02-23T22:36:52.649Z,4.93
2023-02-23T22:41:05.395Z,4.89
2023-02-23T22:45:10.755Z,4.78
2023-02-23T22:49:19.729Z,4.71
2023-02-23T22:53:24.833Z,4.61
2023-02-23T22:57:27.924Z,4.59
2023-02-23T23:01:30.934Z,4.62
2023-02-23T23:05:35.528Z,4.59
2023-02-23T23:09:39.900Z,4.54
2023-02-23T23:13:44.586Z,4.52
2023-02-23T23:17:49.171Z,4.49
2023-02-23T23:21:56.071Z,4.45
2023-02-23T23:25:59.998Z,4.39
2023-02-23T23:30:05.745Z,4.36
2023-02-23T23:34:11.300Z,4.31
2023-02-23T23:38:17.275Z,4.25
2023-02-23T23:42:20.259Z,4.21
2023-02-23T23:46:26.696Z,4.15
2023-02-23T23:50:30.826Z,4.11
2023-02-23T23:54:38.895Z,4.03
2023-02-23T23:58:42.590Z,3.93
